sensor_id;sensor_type;location;lat;lon;timestamp;temperature;humidity
7516;DHT22;3799;47.184;8.538;2024-02-23T00:01:13;8.00;99.90
7516;DHT22;3799;47.184;8.538;2024-02-23T00:03:44;8.10;99.90
7516;DHT22;3799;47.184;8.538;2024-02-23T00:06:30;7.90;99.90
7516;DHT22;3799;47.184;8.538;2024-02-23T00:09:02;8.00;99.90
7516;DHT22;3799;47.184;8.538;2024-02-23T00:11:44;7.80;99.90
7516;DHT22;3799;47.184;8.538;2024-02-23T00:14:16;7.90;99.90
7516;DHT22;3799;47.184;8.538;2024-02-23T00:17:15;7.80;99.90
7516;DHT22;3799;47.184;8.538;2024-02-23T00:22:52;7.90;99.90
7516;DHT22;3799;47.184;8.538;2024-02-23T00:25:25;7.80;99.90
7516;DHT22;3799;47.184;8.538;2024-02-23T00:28:05;7.90;99.90
7516;DHT22;3799;47.184;8.538;2024-02-23T00:30:36;7.70;99.90
7516;DHT22;3799;47.184;8.538;2024-02-23T00:33:11;7.90;99.90
7516;DHT22;3799;47.184;8.538;2024-02-23T00:35:41;7.80;99.90
7516;DHT22;3799;47.184;8.538;2024-02-23T00:38:13;7.90;99.90
7516;DHT22;3799;47.184;8.538;2024-02-23T00:40:41;7.90;99.90
7516;DHT22;3799;47.184;8.538;2024-02-23T00:43:09;7.80;99.90
7516;DHT22;3799;47.184;8.538;2024-02-23T00:46:08;7.90;99.90
7516;DHT22;3799;47.184;8.538;2024-02-23T00:48:39;8.00;99.90
7516;DHT22;3799;47.184;8.538;2024-02-23T00:51:10;7.80;99.90
7516;DHT22;3799;47.184;8.538;2024-02-23T00:53:54;7.90;99.90
7516;DHT22;3799;47.184;8.538;2024-02-23T00:56:34;7.90;99.90
7516;DHT22;3799;47.184;8.538;2024-02-23T00:59:30;7.90;99.90
7516;DHT22;3799;47.184;8.538;2024-02-23T01:02:17;7.80;99.90
7516;DHT22;3799;47.184;8.538;2024-02-23T01:04:47;7.90;99.90
7516;DHT22;3799;47.184;8.538;2024-02-23T01:07:14;8.00;99.90
7516;DHT22;3799;47.184;8.538;2024-02-23T01:09:50;8.40;99.90
7516;DHT22;3799;47.184;8.538;2024-02-23T01:12:27;8.20;99.90
7516;DHT22;3799;47.184;8.538;2024-02-23T01:15:17;8.10;99.90
7516;DHT22;3799;47.184;8.538;2024-02-23T01:17:48;7.90;99.90
7516;DHT22;3799;47.184;8.538;2024-02-23T01:20:26;8.00;99.90
7516;DHT22;3799;47.184;8.538;2024-02-23T01:23:02;8.00;99.90
7516;DHT22;3799;47.184;8.538;2024-02-23T01:25:34;7.80;99.90
7516;DHT22;3799;47.184;8.538;2024-02-23T01:28:02;7.90;99.90
7516;DHT22;3799;47.184;8.538;2024-02-23T01:30:38;7.80;99.90
7516;DHT22;3799;47.184;8.538;2024-02-23T01:33:08;7.70;99.90
7516;DHT22;3799;47.184;8.538;2024-02-23T01:35:41;7.80;99.90
7516;DHT22;3799;47.184;8.538;2024-02-23T01:38:25;8.10;99.90
7516;DHT22;3799;47.184;8.538;2024-02-23T01:41:06;7.70;99.90
7516;DHT22;3799;47.184;8.538;2024-02-23T01:43:38;7.70;99.90
7516;DHT22;3799;47.184;8.538;2024-02-23T01:46:14;7.70;99.90
7516;DHT22;3799;47.184;8.538;2024-02-23T01:49:28;7.80;99.90
7516;DHT22;3799;47.184;8.538;2024-02-23T01:52:10;7.50;99.90
7516;DHT22;3799;47.184;8.538;2024-02-23T01:54:45;7.50;99.90
7516;DHT22;3799;47.184;8.538;2024-02-23T01:57:19;7.60;99.90
7516;DHT22;3799;47.184;8.538;2024-02-23T02:00:24;7.60;99.90
7516;DHT22;3799;47.184;8.538;2024-02-23T02:02:52;7.60;99.90
7516;DHT22;3799;47.184;8.538;2024-02-23T02:05:22;7.60;99.90
7516;DHT22;3799;47.184;8.538;2024-02-23T02:07:55;7.60;99.90
7516;DHT22;3799;47.184;8.538;2024-02-23T02:10:26;7.60;99.90
7516;DHT22;3799;47.184;8.538;2024-02-23T02:12:54;7.60;99.90
7516;DHT22;3799;47.184;8.538;2024-02-23T02:15:21;7.40;99.90
7516;DHT22;3799;47.184;8.538;2024-02-23T02:17:51;7.80;99.90
7516;DHT22;3799;47.184;8.538;2024-02-23T02:20:24;7.50;99.90
7516;DHT22;3799;47.184;8.538;2024-02-23T02:22:51;7.50;99.90
7516;DHT22;3799;47.184;8.538;2024-02-23T02:25:22;7.60;99.90
7516;DHT22;3799;47.184;8.538;2024-02-23T02:27:52;7.40;99.90
7516;DHT22;3799;47.184;8.538;2024-02-23T02:30:20;7.70;99.90
7516;DHT22;3799;47.184;8.538;2024-02-23T02:32:47;7.70;99.90
7516;DHT22;3799;47.184;8.538;2024-02-23T02:35:15;7.40;99.90
7516;DHT22;3799;47.184;8.538;2024-02-23T02:37:45;7.40;99.90
7516;DHT22;3799;47.184;8.538;2024-02-23T02:40:16;7.50;99.90
7516;DHT22;3799;47.184;8.538;2024-02-23T02:42:43;7.20;99.90
7516;DHT22;3799;47.184;8.538;2024-02-23T02:45:10;7.40;99.90
7516;DHT22;3799;47.184;8.538;2024-02-23T02:47:38;7.40;99.90
7516;DHT22;3799;47.184;8.538;2024-02-23T02:50:06;7.40;99.90
7516;DHT22;3799;47.184;8.538;2024-02-23T02:52:34;7.10;99.90
7516;DHT22;3799;47.184;8.538;2024-02-23T02:55:02;7.30;99.90
7516;DHT22;3799;47.184;8.538;2024-02-23T02:57:32;7.40;99.90
7516;DHT22;3799;47.184;8.538;2024-02-23T02:59:59;7.20;99.90
7516;DHT22;3799;47.184;8.538;2024-02-23T03:02:27;7.20;99.90
7516;DHT22;3799;47.184;8.538;2024-02-23T03:04:55;6.90;99.90
7516;DHT22;3799;47.184;8.538;2024-02-23T03:07:22;7.00;99.90
7516;DHT22;3799;47.184;8.538;2024-02-23T03:09:52;7.30;99.90
7516;DHT22;3799;47.184;8.538;2024-02-23T03:12:21;7.10;99.90
7516;DHT22;3799;47.184;8.538;2024-02-23T03:14:52;7.20;99.90
7516;DHT22;3799;47.184;8.538;2024-02-23T03:17:20;7.20;99.90
7516;DHT22;3799;47.184;8.538;2024-02-23T03:19:47;7.10;99.90
7516;DHT22;3799;47.184;8.538;2024-02-23T03:22:17;7.10;99.90
7516;DHT22;3799;47.184;8.538;2024-02-23T03:24:44;7.10;99.90
7516;DHT22;3799;47.184;8.538;2024-02-23T03:27:12;7.30;99.90
7516;DHT22;3799;47.184;8.538;2024-02-23T03:29:43;7.20;99.90
7516;DHT22;3799;47.184;8.538;2024-02-23T03:32:10;7.00;99.90
7516;DHT22;3799;47.184;8.538;2024-02-23T03:34:37;7.00;99.90
7516;DHT22;3799;47.184;8.538;2024-02-23T03:37:05;6.70;99.90
7516;DHT22;3799;47.184;8.538;2024-02-23T03:39:32;6.90;99.90
7516;DHT22;3799;47.184;8.538;2024-02-23T03:42:05;7.00;99.90
7516;DHT22;3799;47.184;8.538;2024-02-23T03:44:32;6.80;99.90
7516;DHT22;3799;47.184;8.538;2024-02-23T03:46:59;7.10;99.90
7516;DHT22;3799;47.184;8.538;2024-02-23T03:49:27;6.90;99.90
7516;DHT22;3799;47.184;8.538;2024-02-23T03:51:57;7.10;99.90
7516;DHT22;3799;47.184;8.538;2024-02-23T03:54:27;7.00;99.90
7516;DHT22;3799;47.184;8.538;2024-02-23T03:56:55;6.80;99.90
7516;DHT22;3799;47.184;8.538;2024-02-23T03:59:22;6.80;99.90
7516;DHT22;3799;47.184;8.538;2024-02-23T04:01:49;7.10;99.90
7516;DHT22;3799;47.184;8.538;2024-02-23T04:04:17;7.00;99.90
7516;DHT22;3799;47.184;8.538;2024-02-23T04:06:53;6.90;99.90
7516;DHT22;3799;47.184;8.538;2024-02-23T04:09:25;7.00;99.90
7516;DHT22;3799;47.184;8.538;2024-02-23T04:11:59;6.90;99.90
7516;DHT22;3799;47.184;8.538;2024-02-23T04:14:26;7.20;99.90
7516;DHT22;3799;47.184;8.538;2024-02-23T04:16:54;7.00;99.90
7516;DHT22;3799;47.184;8.538;2024-02-23T04:19:26;7.10;99.90
7516;DHT22;3799;47.184;8.538;2024-02-23T04:21:54;6.90;99.90
7516;DHT22;3799;47.184;8.538;2024-02-23T04:24:22;6.80;99.90
7516;DHT22;3799;47.184;8.538;2024-02-23T04:26:52;6.90;99.90
7516;DHT22;3799;47.184;8.538;2024-02-23T04:29:19;7.00;99.90
7516;DHT22;3799;47.184;8.538;2024-02-23T04:31:56;6.90;99.90
7516;DHT22;3799;47.184;8.538;2024-02-23T04:34:26;7.00;99.90
7516;DHT22;3799;47.184;8.538;2024-02-23T04:36:54;6.90;99.90
7516;DHT22;3799;47.184;8.538;2024-02-23T04:39:24;7.00;99.90
7516;DHT22;3799;47.184;8.538;2024-02-23T04:41:53;6.80;99.90
7516;DHT22;3799;47.184;8.538;2024-02-23T04:44:21;7.10;99.90
7516;DHT22;3799;47.184;8.538;2024-02-23T04:46:49;7.10;99.90
7516;DHT22;3799;47.184;8.538;2024-02-23T04:49:17;7.10;99.90
7516;DHT22;3799;47.184;8.538;2024-02-23T04:51:44;6.80;99.90
7516;DHT22;3799;47.184;8.538;2024-02-23T04:54:11;6.80;99.90
7516;DHT22;3799;47.184;8.538;2024-02-23T04:56:42;6.90;99.90
7516;DHT22;3799;47.184;8.538;2024-02-23T04:59:12;7.00;99.90
7516;DHT22;3799;47.184;8.538;2024-02-23T05:01:49;6.80;99.90
7516;DHT22;3799;47.184;8.538;2024-02-23T05:04:17;6.70;99.90
7516;DHT22;3799;47.184;8.538;2024-02-23T05:06:51;7.10;99.90
7516;DHT22;3799;47.184;8.538;2024-02-23T05:09:19;6.90;99.90
7516;DHT22;3799;47.184;8.538;2024-02-23T05:11:48;6.90;99.90
7516;DHT22;3799;47.184;8.538;2024-02-23T05:14:19;6.90;99.90
7516;DHT22;3799;47.184;8.538;2024-02-23T05:16:47;7.00;99.90
7516;DHT22;3799;47.184;8.538;2024-02-23T05:19:18;6.70;99.90
7516;DHT22;3799;47.184;8.538;2024-02-23T05:21:45;6.80;99.90
7516;DHT22;3799;47.184;8.538;2024-02-23T05:24:14;6.80;99.90
7516;DHT22;3799;47.184;8.538;2024-02-23T05:26:42;6.70;99.90
7516;DHT22;3799;47.184;8.538;2024-02-23T05:29:11;6.70;99.90
7516;DHT22;3799;47.184;8.538;2024-02-23T05:31:46;6.80;99.90
7516;DHT22;3799;47.184;8.538;2024-02-23T05:34:14;6.90;99.90
7516;DHT22;3799;47.184;8.538;2024-02-23T05:36:46;6.70;99.90
7516;DHT22;3799;47.184;8.538;2024-02-23T05:39:17;6.70;99.90
7516;DHT22;3799;47.184;8.538;2024-02-23T05:41:45;6.70;99.90
7516;DHT22;3799;47.184;8.538;2024-02-23T05:44:12;6.60;99.90
7516;DHT22;3799;47.184;8.538;2024-02-23T05:46:45;6.60;99.90
7516;DHT22;3799;47.184;8.538;2024-02-23T05:49:13;6.90;99.90
7516;DHT22;3799;47.184;8.538;2024-02-23T05:51:40;6.80;99.90
7516;DHT22;3799;47.184;8.538;2024-02-23T05:54:08;6.70;99.90
7516;DHT22;3799;47.184;8.538;2024-02-23T05:56:46;6.60;99.90
7516;DHT22;3799;47.184;8.538;2024-02-23T05:59:24;6.70;99.90
7516;DHT22;3799;47.184;8.538;2024-02-23T06:01:52;6.70;99.90
7516;DHT22;3799;47.184;8.538;2024-02-23T06:04:26;6.60;99.90
7516;DHT22;3799;47.184;8.538;2024-02-23T06:06:54;6.40;99.90
7516;DHT22;3799;47.184;8.538;2024-02-23T06:09:22;6.40;99.90
7516;DHT22;3799;47.184;8.538;2024-02-23T06:11:50;6.70;99.90
7516;DHT22;3799;47.184;8.538;2024-02-23T06:14:17;6.60;99.90
7516;DHT22;3799;47.184;8.538;2024-02-23T06:16:47;6.40;99.90
7516;DHT22;3799;47.184;8.538;2024-02-23T06:19:16;6.40;99.90
7516;DHT22;3799;47.184;8.538;2024-02-23T06:22:13;6.70;99.90
7516;DHT22;3799;47.184;8.538;2024-02-23T06:24:58;6.30;99.90
7516;DHT22;3799;47.184;8.538;2024-02-23T06:27:36;6.50;99.90
7516;DHT22;3799;47.184;8.538;2024-02-23T06:30:09;6.60;99.90
7516;DHT22;3799;47.184;8.538;2024-02-23T06:32:53;6.60;99.90
7516;DHT22;3799;47.184;8.538;2024-02-23T06:35:30;6.50;99.90
7516;DHT22;3799;47.184;8.538;2024-02-23T06:38:03;6.50;99.90
7516;DHT22;3799;47.184;8.538;2024-02-23T06:40:33;6.30;99.90
7516;DHT22;3799;47.184;8.538;2024-02-23T06:43:24;6.30;99.90
7516;DHT22;3799;47.184;8.538;2024-02-23T06:45:54;6.30;99.90
7516;DHT22;3799;47.184;8.538;2024-02-23T06:48:22;6.30;99.90
7516;DHT22;3799;47.184;8.538;2024-02-23T06:50:58;6.20;99.90
7516;DHT22;3799;47.184;8.538;2024-02-23T06:53:37;6.40;99.90
7516;DHT22;3799;47.184;8.538;2024-02-23T06:56:08;6.30;99.90
7516;DHT22;3799;47.184;8.538;2024-02-23T06:58:46;6.40;99.90
7516;DHT22;3799;47.184;8.538;2024-02-23T07:01:36;6.20;99.90
7516;DHT22;3799;47.184;8.538;2024-02-23T07:04:07;6.30;99.90
7516;DHT22;3799;47.184;8.538;2024-02-23T07:10:28;6.30;99.90
7516;DHT22;3799;47.184;8.538;2024-02-23T07:12:55;6.30;99.90
7516;DHT22;3799;47.184;8.538;2024-02-23T07:15:24;6.20;99.90
7516;DHT22;3799;47.184;8.538;2024-02-23T07:18:13;6.50;99.90
7516;DHT22;3799;47.184;8.538;2024-02-23T07:21:03;6.30;99.90
7516;DHT22;3799;47.184;8.538;2024-02-23T07:23:44;6.50;99.90
7516;DHT22;3799;47.184;8.538;2024-02-23T07:26:16;6.30;99.90
7516;DHT22;3799;47.184;8.538;2024-02-23T07:28:49;6.60;99.90
7516;DHT22;3799;47.184;8.538;2024-02-23T07:31:19;6.50;99.90
7516;DHT22;3799;47.184;8.538;2024-02-23T07:34:10;6.60;99.90
7516;DHT22;3799;47.184;8.538;2024-02-23T07:36:40;6.40;99.90
7516;DHT22;3799;47.184;8.538;2024-02-23T07:39:27;6.60;99.90
7516;DHT22;3799;47.184;8.538;2024-02-23T07:42:02;6.40;99.90
7516;DHT22;3799;47.184;8.538;2024-02-23T07:44:43;6.50;99.90
7516;DHT22;3799;47.184;8.538;2024-02-23T07:47:14;6.40;99.80
7516;DHT22;3799;47.184;8.538;2024-02-23T07:49:49;6.60;99.90
7516;DHT22;3799;47.184;8.538;2024-02-23T07:52:22;6.60;99.90
7516;DHT22;3799;47.184;8.538;2024-02-23T07:54:52;6.90;99.90
7516;DHT22;3799;47.184;8.538;2024-02-23T07:57:23;6.70;99.90
7516;DHT22;3799;47.184;8.538;2024-02-23T07:59:53;6.80;99.50
7516;DHT22;3799;47.184;8.538;2024-02-23T08:02:21;6.80;99.00
7516;DHT22;3799;47.184;8.538;2024-02-23T08:04:52;6.70;99.00
7516;DHT22;3799;47.184;8.538;2024-02-23T08:07:20;6.70;99.50
7516;DHT22;3799;47.184;8.538;2024-02-23T08:09:47;6.90;99.50
7516;DHT22;3799;47.184;8.538;2024-02-23T08:12:14;6.80;99.20
7516;DHT22;3799;47.184;8.538;2024-02-23T08:21:05;7.10;99.50
7516;DHT22;3799;47.184;8.538;2024-02-23T08:23:47;6.90;99.20
7516;DHT22;3799;47.184;8.538;2024-02-23T08:29:43;7.20;99.00
7516;DHT22;3799;47.184;8.538;2024-02-23T08:32:11;7.20;98.90
7516;DHT22;3799;47.184;8.538;2024-02-23T08:34:48;7.20;98.70
7516;DHT22;3799;47.184;8.538;2024-02-23T08:37:28;7.20;98.10
7516;DHT22;3799;47.184;8.538;2024-02-23T08:40:24;7.30;98.10
7516;DHT22;3799;47.184;8.538;2024-02-23T08:43:06;7.20;97.60
7516;DHT22;3799;47.184;8.538;2024-02-23T08:45:44;7.40;97.30
7516;DHT22;3799;47.184;8.538;2024-02-23T08:48:12;7.30;97.00
7516;DHT22;3799;47.184;8.538;2024-02-23T08:50:44;7.30;96.80
7516;DHT22;3799;47.184;8.538;2024-02-23T08:53:58;7.30;96.60
7516;DHT22;3799;47.184;8.538;2024-02-23T08:56:45;7.40;96.30
7516;DHT22;3799;47.184;8.538;2024-02-23T08:59:15;7.30;95.70
7516;DHT22;3799;47.184;8.538;2024-02-23T09:01:45;7.20;95.40
7516;DHT22;3799;47.184;8.538;2024-02-23T09:11:28;7.40;95.00
7516;DHT22;3799;47.184;8.538;2024-02-23T09:13:59;7.40;95.30
7516;DHT22;3799;47.184;8.538;2024-02-23T09:16:31;7.50;95.50
7516;DHT22;3799;47.184;8.538;2024-02-23T09:19:10;7.80;95.70
7516;DHT22;3799;47.184;8.538;2024-02-23T09:21:40;7.80;95.90
7516;DHT22;3799;47.184;8.538;2024-02-23T09:26:58;7.60;95.10
7516;DHT22;3799;47.184;8.538;2024-02-23T09:29:28;7.70;95.00
7516;DHT22;3799;47.184;8.538;2024-02-23T09:31:55;7.80;95.20
7516;DHT22;3799;47.184;8.538;2024-02-23T09:35:03;7.90;95.40
7516;DHT22;3799;47.184;8.538;2024-02-23T09:41:31;7.80;94.10
7516;DHT22;3799;47.184;8.538;2024-02-23T09:47:20;7.80;94.30
7516;DHT22;3799;47.184;8.538;2024-02-23T09:49:53;7.90;94.00
7516;DHT22;3799;47.184;8.538;2024-02-23T09:52:45;7.90;93.80
7516;DHT22;3799;47.184;8.538;2024-02-23T09:55:50;7.80;93.70
7516;DHT22;3799;47.184;8.538;2024-02-23T10:02:14;8.00;93.30
7516;DHT22;3799;47.184;8.538;2024-02-23T10:05:01;7.80;93.50
7516;DHT22;3799;47.184;8.538;2024-02-23T10:07:40;8.20;94.50
7516;DHT22;3799;47.184;8.538;2024-02-23T10:10:22;8.10;94.90
7516;DHT22;3799;47.184;8.538;2024-02-23T10:16:01;8.00;95.00
7516;DHT22;3799;47.184;8.538;2024-02-23T10:20:06;7.90;94.90
7516;DHT22;3799;47.184;8.538;2024-02-23T10:22:43;7.80;95.10
7516;DHT22;3799;47.184;8.538;2024-02-23T10:25:44;8.10;95.10
7516;DHT22;3799;47.184;8.538;2024-02-23T10:28:55;8.20;95.00
7516;DHT22;3799;47.184;8.538;2024-02-23T10:31:37;7.90;94.30
7516;DHT22;3799;47.184;8.538;2024-02-23T10:34:24;8.10;94.40
7516;DHT22;3799;47.184;8.538;2024-02-23T10:36:58;8.00;94.30
7516;DHT22;3799;47.184;8.538;2024-02-23T10:39:29;8.20;94.60
7516;DHT22;3799;47.184;8.538;2024-02-23T10:42:27;8.10;94.20
7516;DHT22;3799;47.184;8.538;2024-02-23T10:45:01;8.30;93.80
7516;DHT22;3799;47.184;8.538;2024-02-23T10:47:55;8.40;93.00
7516;DHT22;3799;47.184;8.538;2024-02-23T10:50:43;8.50;93.00
7516;DHT22;3799;47.184;8.538;2024-02-23T10:53:24;8.70;93.20
7516;DHT22;3799;47.184;8.538;2024-02-23T10:55:56;8.80;93.40
7516;DHT22;3799;47.184;8.538;2024-02-23T10:58:27;8.90;93.40
7516;DHT22;3799;47.184;8.538;2024-02-23T11:01:16;8.80;93.00
7516;DHT22;3799;47.184;8.538;2024-02-23T11:07:14;8.90;93.10
7516;DHT22;3799;47.184;8.538;2024-02-23T11:10:16;9.00;93.00
7516;DHT22;3799;47.184;8.538;2024-02-23T11:13:18;9.20;92.40
7516;DHT22;3799;47.184;8.538;2024-02-23T11:16:04;9.20;91.20
7516;DHT22;3799;47.184;8.538;2024-02-23T11:18:45;8.90;91.50
7516;DHT22;3799;47.184;8.538;2024-02-23T11:21:19;9.10;91.00
7516;DHT22;3799;47.184;8.538;2024-02-23T11:27:31;9.20;90.80
7516;DHT22;3799;47.184;8.538;2024-02-23T11:33:34;10.00;82.80
7516;DHT22;3799;47.184;8.538;2024-02-23T11:36:08;10.10;80.10
7516;DHT22;3799;47.184;8.538;2024-02-23T11:39:04;10.00;79.70
7516;DHT22;3799;47.184;8.538;2024-02-23T11:41:36;10.00;77.30
7516;DHT22;3799;47.184;8.538;2024-02-23T11:44:21;10.60;74.30
7516;DHT22;3799;47.184;8.538;2024-02-23T11:47:04;10.80;70.30
7516;DHT22;3799;47.184;8.538;2024-02-23T11:49:37;10.80;67.10
7516;DHT22;3799;47.184;8.538;2024-02-23T11:52:21;10.80;63.50
7516;DHT22;3799;47.184;8.538;2024-02-23T11:54:57;10.80;63.20
7516;DHT22;3799;47.184;8.538;2024-02-23T11:58:26;10.70;62.00
7516;DHT22;3799;47.184;8.538;2024-02-23T12:01:09;11.10;61.30
7516;DHT22;3799;47.184;8.538;2024-02-23T12:03:41;11.50;59.30
7516;DHT22;3799;47.184;8.538;2024-02-23T12:06:15;11.60;58.10
7516;DHT22;3799;47.184;8.538;2024-02-23T12:09:17;11.60;57.30
7516;DHT22;3799;47.184;8.538;2024-02-23T12:11:49;12.00;56.80
7516;DHT22;3799;47.184;8.538;2024-02-23T12:14:43;12.10;55.60
7516;DHT22;3799;47.184;8.538;2024-02-23T12:17:11;11.90;54.80
7516;DHT22;3799;47.184;8.538;2024-02-23T12:19:39;11.90;55.00
7516;DHT22;3799;47.184;8.538;2024-02-23T12:22:46;12.00;55.10
7516;DHT22;3799;47.184;8.538;2024-02-23T12:25:59;12.00;54.60
7516;DHT22;3799;47.184;8.538;2024-02-23T12:31:26;12.00;53.60
7516;DHT22;3799;47.184;8.538;2024-02-23T12:34:18;12.00;53.40
7516;DHT22;3799;47.184;8.538;2024-02-23T12:37:04;11.90;53.50
7516;DHT22;3799;47.184;8.538;2024-02-23T12:40:14;11.70;53.40
7516;DHT22;3799;47.184;8.538;2024-02-23T12:46:19;11.50;54.70
7516;DHT22;3799;47.184;8.538;2024-02-23T12:49:02;11.30;54.90
7516;DHT22;3799;47.184;8.538;2024-02-23T12:51:38;11.30;54.60
7516;DHT22;3799;47.184;8.538;2024-02-23T12:56:51;11.90;54.20
7516;DHT22;3799;47.184;8.538;2024-02-23T12:59:37;12.00;54.20
7516;DHT22;3799;47.184;8.538;2024-02-23T13:02:28;12.00;53.40
7516;DHT22;3799;47.184;8.538;2024-02-23T13:05:03;11.70;53.20
7516;DHT22;3799;47.184;8.538;2024-02-23T13:07:40;12.30;53.50
7516;DHT22;3799;47.184;8.538;2024-02-23T13:10:34;12.70;53.30
7516;DHT22;3799;47.184;8.538;2024-02-23T13:13:18;12.80;53.50
7516;DHT22;3799;47.184;8.538;2024-02-23T13:16:45;13.10;52.70
7516;DHT22;3799;47.184;8.538;2024-02-23T13:19:42;13.40;51.60
7516;DHT22;3799;47.184;8.538;2024-02-23T13:22:55;13.50;50.70
7516;DHT22;3799;47.184;8.538;2024-02-23T13:26:07;13.90;48.60
7516;DHT22;3799;47.184;8.538;2024-02-23T13:28:53;13.70;49.90
7516;DHT22;3799;47.184;8.538;2024-02-23T13:32:06;14.10;49.10
7516;DHT22;3799;47.184;8.538;2024-02-23T13:35:06;14.60;48.40
7516;DHT22;3799;47.184;8.538;2024-02-23T13:37:49;15.00;48.20
7516;DHT22;3799;47.184;8.538;2024-02-23T13:40:20;15.60;47.90
7516;DHT22;3799;47.184;8.538;2024-02-23T13:44:08;16.20;45.90
7516;DHT22;3799;47.184;8.538;2024-02-23T13:46:42;16.70;43.70
7516;DHT22;3799;47.184;8.538;2024-02-23T13:49:28;16.90;44.00
7516;DHT22;3799;47.184;8.538;2024-02-23T13:52:24;16.90;43.00
7516;DHT22;3799;47.184;8.538;2024-02-23T13:55:07;16.50;42.80
7516;DHT22;3799;47.184;8.538;2024-02-23T13:57:40;15.70;43.00
7516;DHT22;3799;47.184;8.538;2024-02-23T14:00:13;14.90;43.30
7516;DHT22;3799;47.184;8.538;2024-02-23T14:06:21;14.30;44.40
7516;DHT22;3799;47.184;8.538;2024-02-23T14:09:00;13.70;44.80
7516;DHT22;3799;47.184;8.538;2024-02-23T14:11:41;13.30;45.10
7516;DHT22;3799;47.184;8.538;2024-02-23T14:14:09;13.00;45.30
7516;DHT22;3799;47.184;8.538;2024-02-23T14:16:36;12.90;45.50
7516;DHT22;3799;47.184;8.538;2024-02-23T14:19:06;12.80;47.90
7516;DHT22;3799;47.184;8.538;2024-02-23T14:25:07;12.30;51.00
7516;DHT22;3799;47.184;8.538;2024-02-23T14:27:52;12.70;52.60
7516;DHT22;3799;47.184;8.538;2024-02-23T14:30:19;13.40;53.00
7516;DHT22;3799;47.184;8.538;2024-02-23T14:36:26;15.60;49.80
7516;DHT22;3799;47.184;8.538;2024-02-23T14:39:27;16.10;48.60
7516;DHT22;3799;47.184;8.538;2024-02-23T14:42:07;15.50;48.20
7516;DHT22;3799;47.184;8.538;2024-02-23T14:45:00;14.90;48.90
7516;DHT22;3799;47.184;8.538;2024-02-23T14:48:37;14.00;49.30
7516;DHT22;3799;47.184;8.538;2024-02-23T14:51:22;13.90;50.50
7516;DHT22;3799;47.184;8.538;2024-02-23T14:54:13;13.80;50.80
7516;DHT22;3799;47.184;8.538;2024-02-23T14:56:41;14.10;50.60
7516;DHT22;3799;47.184;8.538;2024-02-23T14:59:09;14.40;51.70
7516;DHT22;3799;47.184;8.538;2024-02-23T15:01:44;15.00;60.40
7516;DHT22;3799;47.184;8.538;2024-02-23T15:11:32;17.70;46.30
7516;DHT22;3799;47.184;8.538;2024-02-23T15:14:53;17.00;44.00
7516;DHT22;3799;47.184;8.538;2024-02-23T15:17:31;16.00;44.20
7516;DHT22;3799;47.184;8.538;2024-02-23T15:20:13;15.30;44.40
7516;DHT22;3799;47.184;8.538;2024-02-23T15:23:20;14.50;45.30
7516;DHT22;3799;47.184;8.538;2024-02-23T15:26:36;13.80;46.30
7516;DHT22;3799;47.184;8.538;2024-02-23T15:29:19;13.10;47.30
7516;DHT22;3799;47.184;8.538;2024-02-23T15:32:33;13.10;47.70
7516;DHT22;3799;47.184;8.538;2024-02-23T15:35:03;12.30;47.40
7516;DHT22;3799;47.184;8.538;2024-02-23T15:37:31;12.30;47.60
7516;DHT22;3799;47.184;8.538;2024-02-23T15:40:10;12.30;48.10
7516;DHT22;3799;47.184;8.538;2024-02-23T15:43:01;12.10;48.80
7516;DHT22;3799;47.184;8.538;2024-02-23T15:45:30;12.70;50.10
7516;DHT22;3799;47.184;8.538;2024-02-23T15:48:00;12.80;49.30
7516;DHT22;3799;47.184;8.538;2024-02-23T15:50:28;12.30;49.80
7516;DHT22;3799;47.184;8.538;2024-02-23T15:53:18;12.10;50.70
7516;DHT22;3799;47.184;8.538;2024-02-23T15:56:01;11.70;51.70
7516;DHT22;3799;47.184;8.538;2024-02-23T15:58:42;11.40;52.60
7516;DHT22;3799;47.184;8.538;2024-02-23T16:01:12;11.10;53.10
7516;DHT22;3799;47.184;8.538;2024-02-23T16:03:42;10.80;53.80
7516;DHT22;3799;47.184;8.538;2024-02-23T16:06:10;10.90;54.10
7516;DHT22;3799;47.184;8.538;2024-02-23T16:08:44;10.70;54.50
7516;DHT22;3799;47.184;8.538;2024-02-23T16:11:18;10.70;55.30
7516;DHT22;3799;47.184;8.538;2024-02-23T16:13:45;10.40;55.80
7516;DHT22;3799;47.184;8.538;2024-02-23T16:16:16;10.20;56.00
7516;DHT22;3799;47.184;8.538;2024-02-23T16:18:45;10.10;56.40
7516;DHT22;3799;47.184;8.538;2024-02-23T16:21:28;9.70;57.40
7516;DHT22;3799;47.184;8.538;2024-02-23T16:24:02;10.00;57.60
7516;DHT22;3799;47.184;8.538;2024-02-23T16:26:33;9.60;58.60
7516;DHT22;3799;47.184;8.538;2024-02-23T16:29:10;9.90;59.40
7516;DHT22;3799;47.184;8.538;2024-02-23T16:31:38;9.70;59.50
7516;DHT22;3799;47.184;8.538;2024-02-23T16:34:05;9.70;59.80
7516;DHT22;3799;47.184;8.538;2024-02-23T16:36:37;9.90;60.70
7516;DHT22;3799;47.184;8.538;2024-02-23T16:39:07;9.60;61.90
7516;DHT22;3799;47.184;8.538;2024-02-23T16:41:35;9.50;63.10
7516;DHT22;3799;47.184;8.538;2024-02-23T16:44:05;9.50;64.40
7516;DHT22;3799;47.184;8.538;2024-02-23T16:46:33;9.40;65.50
7516;DHT22;3799;47.184;8.538;2024-02-23T16:49:16;9.00;66.50
7516;DHT22;3799;47.184;8.538;2024-02-23T16:51:47;8.80;67.80
7516;DHT22;3799;47.184;8.538;2024-02-23T16:54:15;9.00;70.00
7516;DHT22;3799;47.184;8.538;2024-02-23T16:56:44;8.90;71.70
7516;DHT22;3799;47.184;8.538;2024-02-23T16:59:12;8.80;73.80
7516;DHT22;3799;47.184;8.538;2024-02-23T17:01:40;8.90;83.50
7516;DHT22;3799;47.184;8.538;2024-02-23T17:04:12;9.10;99.90
7516;DHT22;3799;47.184;8.538;2024-02-23T17:06:39;9.60;99.90
7516;DHT22;3799;47.184;8.538;2024-02-23T17:09:07;10.50;99.90
7516;DHT22;3799;47.184;8.538;2024-02-23T17:11:38;10.70;99.90
7516;DHT22;3799;47.184;8.538;2024-02-23T17:14:05;10.60;99.90
7516;DHT22;3799;47.184;8.538;2024-02-23T17:16:33;10.00;99.90
7516;DHT22;3799;47.184;8.538;2024-02-23T17:19:03;9.80;99.90
7516;DHT22;3799;47.184;8.538;2024-02-23T17:21:30;9.50;99.90
7516;DHT22;3799;47.184;8.538;2024-02-23T17:23:57;8.80;99.90
7516;DHT22;3799;47.184;8.538;2024-02-23T17:26:25;8.50;99.90
7516;DHT22;3799;47.184;8.538;2024-02-23T17:28:52;8.50;99.90
7516;DHT22;3799;47.184;8.538;2024-02-23T17:31:20;8.20;99.90
7516;DHT22;3799;47.184;8.538;2024-02-23T17:33:48;7.90;99.90
7516;DHT22;3799;47.184;8.538;2024-02-23T17:36:18;7.80;99.90
7516;DHT22;3799;47.184;8.538;2024-02-23T17:38:47;7.60;99.90
7516;DHT22;3799;47.184;8.538;2024-02-23T17:41:14;7.60;99.90
7516;DHT22;3799;47.184;8.538;2024-02-23T17:43:47;7.30;99.90
7516;DHT22;3799;47.184;8.538;2024-02-23T17:46:17;7.40;99.90
7516;DHT22;3799;47.184;8.538;2024-02-23T17:48:47;7.20;99.90
7516;DHT22;3799;47.184;8.538;2024-02-23T17:51:29;7.00;99.90
7516;DHT22;3799;47.184;8.538;2024-02-23T17:54:05;7.10;99.90
7516;DHT22;3799;47.184;8.538;2024-02-23T17:56:39;7.00;99.90
7516;DHT22;3799;47.184;8.538;2024-02-23T17:59:10;6.80;99.90
7516;DHT22;3799;47.184;8.538;2024-02-23T18:01:37;6.80;99.90
7516;DHT22;3799;47.184;8.538;2024-02-23T18:04:05;6.70;99.90
7516;DHT22;3799;47.184;8.538;2024-02-23T18:06:36;6.50;99.90
7516;DHT22;3799;47.184;8.538;2024-02-23T18:09:03;6.70;99.90
7516;DHT22;3799;47.184;8.538;2024-02-23T18:11:31;6.80;99.90
7516;DHT22;3799;47.184;8.538;2024-02-23T18:14:00;6.70;99.90
7516;DHT22;3799;47.184;8.538;2024-02-23T18:16:31;6.60;99.90
7516;DHT22;3799;47.184;8.538;2024-02-23T18:19:01;6.70;99.90
7516;DHT22;3799;47.184;8.538;2024-02-23T18:21:34;6.40;99.90
7516;DHT22;3799;47.184;8.538;2024-02-23T18:24:02;6.50;99.90
7516;DHT22;3799;47.184;8.538;2024-02-23T18:26:33;6.50;99.90
7516;DHT22;3799;47.184;8.538;2024-02-23T18:29:03;6.20;99.90
7516;DHT22;3799;47.184;8.538;2024-02-23T18:31:30;6.50;99.90
7516;DHT22;3799;47.184;8.538;2024-02-23T18:33:59;6.20;99.90